Washington, DC (20001)

1:07 PM EST on February 25, 2017 (GMT -0500)
Logan Circle | | Change Station

Elev 108 ft 38.91 °N, 77.03 °W | Updated 4 seconds ago

Mostly Cloudy
Mostly Cloudy
74.3 °F
Feels Like 77 °F
N
1.3
Wind Variable Wind from SSW
Gusts 7.4 mph

Today
High -- | Low -- °F
--% Chance of Precip.
Yesterday
High -- | Low -- °F
Precip. -- in
Pressure 29.51 in
Visibility 10.0 miles
Clouds Scattered Clouds 4500 ft
Mostly Cloudy 7000 ft
Mostly Cloudy 9000 ft
Mostly Cloudy 25000 ft
Heat Index 77 °F
Dew Point 60 °F
Humidity 62%
Rainfall 0.00 in
Snow Depth Not available.
6:45 AM 5:56 PM
Waning Crescent, 1% visible
METAR KDCA 251752Z 18015KT 10SM SCT045TCU BKN070 BKN090 BKN250 21/14 A2951 RMK AO2 PRESFR SLP993 TCU SW T02110139 10239 20150 58045
Pressure 29.51 in
Visibility 10.0 miles
Clouds Scattered Clouds 4500 ft
Mostly Cloudy 7000 ft
Mostly Cloudy 9000 ft
Mostly Cloudy 25000 ft
Heat Index 77 °F
Dew Point 60 °F
Humidity 62%
Rainfall 0.00 in
Snow Depth Not available.
6:45 AM 5:56 PM
Waning Crescent, 1% visible
METAR KDCA 251752Z 18015KT 10SM SCT045TCU BKN070 BKN090 BKN250 21/14 A2951 RMK AO2 PRESFR SLP993 TCU SW T02110139 10239 20150 58045

Get Your Daily Forecast Email!

Thanks for signing up!

Be on the lookout for a verification email in your inbox.

You'll start receiving the daily forecast at 8 AM.

×

10-Day Weather Forecast

Almanac

Astronomy

Feb. 25, 2017 Rise Set
Actual Time
Civil Twilight
Nautical Twilight
Astronomical Twilight
Moon
Length of Visible Light
Length of Day
Tomorrow will be .
, % of the Moon is Illuminated

Today's Extremes

State Highs State Lows

Community

WunderPhotos

Upload Photos

1,962,540 photos uploaded!

WunderBlog® & News

Nearby

Air Quality

  Air Quality AQ Index Pollutant
Not available.

Snow Depth

Station Depth Elevation

Earthquake Activity

City Distance Mag. Time & Date
Minimum magnitude displayed is 2.5.

Coastal Water Temperatures

Place Temperature

Stations

Nearby Weather Stations

Station Location Temp. Windchill Dew Point Humidity Wind Precip. Elev Updated Type
                   

Watches & Warnings

There are currently no watches in effect.